createdAt,value
2019-06-26T00:00:39.247Z,19.13
2019-06-26T00:03:08.884Z,20.17
2019-06-26T00:05:38.523Z,17.30
2019-06-26T00:08:08.017Z,16.60
2019-06-26T00:10:37.512Z,18.17
2019-06-26T00:13:07.114Z,17.20
2019-06-26T00:15:35.459Z,17.07
2019-06-26T00:18:04.158Z,15.97
2019-06-26T00:20:33.693Z,15.30
2019-06-26T00:23:03.203Z,15.37
2019-06-26T00:25:32.633Z,15.17
2019-06-26T00:28:02.188Z,15.83
2019-06-26T00:30:31.627Z,14.93
2019-06-26T00:33:01.199Z,16.20
2019-06-26T00:35:30.809Z,16.73
2019-06-26T00:38:00.413Z,16.83
2019-06-26T00:40:29.889Z,17.63
2019-06-26T00:45:27.240Z,16.93
2019-06-26T00:47:56.742Z,17.07
2019-06-26T00:50:26.247Z,16.43
2019-06-26T00:52:55.857Z,17.43
2019-06-26T00:55:25.423Z,16.07
2019-06-26T00:57:54.990Z,14.90
2019-06-26T01:00:33.741Z,15.13
2019-06-26T01:03:03.142Z,15.30
2019-06-26T01:05:32.790Z,16.30
2019-06-26T01:08:02.479Z,15.90
2019-06-26T01:10:31.986Z,16.43
2019-06-26T01:13:01.548Z,17.43
2019-06-26T01:15:31.149Z,16.67
2019-06-26T01:18:00.654Z,15.70
2019-06-26T01:20:30.221Z,17.00
2019-06-26T01:22:59.855Z,16.17
2019-06-26T01:25:29.430Z,15.90
2019-06-26T01:27:59.830Z,15.73
2019-06-26T01:30:29.399Z,14.23
2019-06-26T01:32:58.967Z,17.13
2019-06-26T01:35:28.646Z,15.13
2019-06-26T01:37:58.222Z,15.23
2019-06-26T01:40:28.802Z,15.83
2019-06-26T01:42:58.370Z,16.83
2019-06-26T01:45:27.864Z,16.27
2019-06-26T01:47:57.334Z,15.90
2019-06-26T01:50:26.979Z,16.43
2019-06-26T01:52:56.550Z,15.13
2019-06-26T01:55:26.088Z,16.90
2019-06-26T01:57:55.592Z,15.97
2019-06-26T02:00:25.289Z,15.93
2019-06-26T02:02:54.863Z,17.63
2019-06-26T02:05:24.438Z,17.57
2019-06-26T02:07:55.033Z,18.13
2019-06-26T02:10:24.643Z,17.53
2019-06-26T02:12:54.130Z,16.50
2019-06-26T02:15:23.769Z,16.03
2019-06-26T02:17:53.274Z,16.90
2019-06-26T02:20:22.809Z,16.40
2019-06-26T02:22:52.302Z,16.70
2019-06-26T02:25:21.942Z,16.83
2019-06-26T02:27:51.590Z,15.57
2019-06-26T02:30:21.172Z,16.10
2019-06-26T02:32:51.788Z,17.50
2019-06-26T02:35:21.288Z,17.27
2019-06-26T02:37:50.787Z,16.13
2019-06-26T02:40:20.453Z,16.87
2019-06-26T02:42:49.870Z,17.57
2019-06-26T02:45:19.373Z,16.60
2019-06-26T02:47:48.984Z,17.20
2019-06-26T02:50:18.642Z,17.20
2019-06-26T02:52:48.157Z,15.90
2019-06-26T02:55:17.644Z,15.43
2019-06-26T02:57:47.153Z,15.73
2019-06-26T03:00:16.776Z,15.07
2019-06-26T03:02:46.262Z,15.27
2019-06-26T03:05:15.828Z,15.97
2019-06-26T03:07:45.362Z,15.67
2019-06-26T03:10:15.246Z,16.43
2019-06-26T03:12:44.834Z,15.90
2019-06-26T03:15:14.644Z,16.43
2019-06-26T03:17:54.735Z,15.87
2019-06-26T03:20:16.836Z,17.23
2019-06-26T03:22:46.396Z,17.53
2019-06-26T03:25:15.805Z,17.20
2019-06-26T03:27:45.316Z,16.90
2019-06-26T03:30:15.283Z,16.33
2019-06-26T03:32:44.721Z,15.53
2019-06-26T03:35:14.291Z,16.93
2019-06-26T03:37:43.760Z,16.00
2019-06-26T03:40:13.445Z,17.63
2019-06-26T03:42:43.877Z,16.20
2019-06-26T03:45:25.309Z,15.17
2019-06-26T03:47:44.950Z,17.03
2019-06-26T03:50:14.679Z,16.70
2019-06-26T03:52:44.192Z,17.70
2019-06-26T03:55:14.406Z,16.33
2019-06-26T03:57:44.073Z,16.27
2019-06-26T04:00:14.174Z,17.83
2019-06-26T04:02:43.642Z,16.77
2019-06-26T04:05:13.210Z,17.53
2019-06-26T04:07:42.784Z,18.87
2019-06-26T04:10:12.894Z,19.50
2019-06-26T04:12:42.463Z,18.43
2019-06-26T04:15:12.140Z,17.93
2019-06-26T04:17:41.836Z,20.00
2019-06-26T04:20:11.590Z,19.63
2019-06-26T04:22:41.164Z,20.20
2019-06-26T04:25:10.900Z,19.57
2019-06-26T04:27:40.458Z,18.87
2019-06-26T04:30:12.089Z,19.10
2019-06-26T04:36:28.767Z,20.50
2019-06-26T04:39:01.034Z,20.43
2019-06-26T04:44:52.151Z,18.07
2019-06-26T04:53:44.392Z,19.33
2019-06-26T04:56:14.241Z,19.13
2019-06-26T04:58:44.070Z,18.53
2019-06-26T05:04:11.573Z,18.27
2019-06-26T05:06:41.229Z,18.13
2019-06-26T05:09:11.049Z,17.13
2019-06-26T05:11:42.814Z,19.00
2019-06-26T05:14:14.269Z,18.40
2019-06-26T05:16:47.138Z,20.23
2019-06-26T05:19:16.921Z,20.17
2019-06-26T05:24:52.140Z,20.47
2019-06-26T05:28:08.585Z,20.07
2019-06-26T05:30:39.640Z,19.03
2019-06-26T05:33:10.491Z,21.13
2019-06-26T05:35:44.807Z,20.87
2019-06-26T05:38:16.186Z,21.63
2019-06-26T05:40:46.307Z,20.50
2019-06-26T05:43:16.077Z,20.60
2019-06-26T05:45:46.701Z,20.73
2019-06-26T05:48:17.448Z,20.47
2019-06-26T05:53:51.037Z,20.17
2019-06-26T05:56:20.635Z,20.87
2019-06-26T05:58:51.353Z,20.73
2019-06-26T06:01:21.279Z,20.63
2019-06-26T06:03:51.148Z,21.53
2019-06-26T06:06:20.989Z,19.87
2019-06-26T06:08:50.645Z,20.40
2019-06-26T06:11:20.423Z,20.47
2019-06-26T06:13:50.173Z,19.87
2019-06-26T06:16:19.904Z,19.27
2019-06-26T06:18:49.610Z,19.30
2019-06-26T06:21:19.291Z,17.90
2019-06-26T06:23:49.094Z,19.33
2019-06-26T06:26:18.825Z,18.83
2019-06-26T06:28:48.653Z,18.17
2019-06-26T06:31:20.008Z,18.33
2019-06-26T06:34:09.905Z,18.47
2019-06-26T06:36:39.637Z,16.27
2019-06-26T06:39:09.438Z,16.90
2019-06-26T06:41:39.054Z,18.17
2019-06-26T06:44:41.997Z,17.87
2019-06-26T06:47:13.492Z,16.90
2019-06-26T06:49:42.974Z,18.90
2019-06-26T06:52:22.818Z,17.53
2019-06-26T06:54:52.445Z,20.07
2019-06-26T06:57:22.215Z,17.77
2019-06-26T06:59:51.929Z,18.47
2019-06-26T07:02:21.448Z,17.97
2019-06-26T07:04:51.124Z,19.57
2019-06-26T07:07:21.984Z,26.37
2019-06-26T07:09:53.207Z,17.43
2019-06-26T07:12:41.355Z,16.63
2019-06-26T07:15:04.768Z,16.07
2019-06-26T07:17:34.528Z,17.03
2019-06-26T07:20:30.181Z,16.80
2019-06-26T07:22:59.900Z,17.43
2019-06-26T07:25:29.620Z,18.00
2019-06-26T07:28:01.762Z,19.97
2019-06-26T07:30:30.636Z,19.03
2019-06-26T07:33:00.558Z,16.77
2019-06-26T07:35:30.271Z,17.87
2019-06-26T07:38:00.424Z,17.23
2019-06-26T07:40:30.256Z,16.47
2019-06-26T07:43:00.000Z,14.87
2019-06-26T07:45:29.822Z,16.13
2019-06-26T07:47:59.592Z,17.47
2019-06-26T07:50:32.313Z,17.27
2019-06-26T07:53:01.814Z,14.83
2019-06-26T07:55:32.956Z,15.53
2019-06-26T07:58:04.324Z,16.33
2019-06-26T08:00:34.233Z,15.97
2019-06-26T08:03:04.666Z,16.83
2019-06-26T08:05:34.679Z,16.33
2019-06-26T08:08:04.330Z,17.67
2019-06-26T08:10:34.145Z,18.27
2019-06-26T08:13:10.030Z,17.03
2019-06-26T08:15:41.847Z,17.10
2019-06-26T08:18:11.433Z,17.37
2019-06-26T08:29:38.624Z,15.60
2019-06-26T08:35:10.886Z,16.37
2019-06-26T08:41:16.259Z,17.63
2019-06-26T08:44:14.957Z,16.00
2019-06-26T08:46:24.805Z,17.40
2019-06-26T08:48:54.530Z,17.27
2019-06-26T08:51:40.900Z,17.53
2019-06-26T09:02:44.064Z,16.83
2019-06-26T09:05:13.862Z,18.13
2019-06-26T09:07:43.649Z,17.27
2019-06-26T09:16:36.286Z,15.17
2019-06-26T09:19:51.677Z,16.23
2019-06-26T09:28:39.747Z,15.50
2019-06-26T09:31:14.625Z,14.80
2019-06-26T09:33:45.288Z,15.63
2019-06-26T09:36:14.951Z,16.33
2019-06-26T09:38:44.684Z,14.43
2019-06-26T09:41:14.782Z,15.17
2019-06-26T09:43:44.519Z,14.77
2019-06-26T09:46:14.143Z,14.53
2019-06-26T09:48:52.690Z,14.73
2019-06-26T09:51:15.059Z,14.53
2019-06-26T09:53:47.459Z,14.53
2019-06-26T09:56:16.018Z,15.03
2019-06-26T09:58:58.594Z,14.23
2019-06-26T10:01:30.901Z,13.03
2019-06-26T10:04:03.719Z,13.63
2019-06-26T10:06:41.583Z,13.33
2019-06-26T10:09:09.775Z,12.37
2019-06-26T10:11:43.862Z,12.83
2019-06-26T10:14:13.743Z,12.90
2019-06-26T10:16:45.296Z,13.03
2019-06-26T10:19:18.700Z,12.83
2019-06-26T10:21:50.337Z,12.87
2019-06-26T10:24:20.102Z,13.33
2019-06-26T10:26:52.610Z,13.43
2019-06-26T10:29:24.167Z,12.27
2019-06-26T10:31:56.783Z,11.57
2019-06-26T10:34:28.034Z,11.70
2019-06-26T10:36:57.652Z,12.00
2019-06-26T10:39:41.063Z,11.87
2019-06-26T10:42:22.872Z,11.33
2019-06-26T10:44:52.739Z,12.67
2019-06-26T10:47:29.154Z,12.00
2019-06-26T10:50:19.606Z,11.50
2019-06-26T10:53:09.342Z,10.83
2019-06-26T10:56:01.997Z,10.80
2019-06-26T10:58:11.967Z,10.57
2019-06-26T11:00:52.553Z,11.13
2019-06-26T11:05:00.482Z,10.00
2019-06-26T11:05:57.483Z,9.73
2019-06-26T11:08:48.316Z,10.40
2019-06-26T11:11:22.759Z,9.87
2019-06-26T11:13:55.659Z,9.87
2019-06-26T11:16:26.909Z,10.80
2019-06-26T11:19:00.261Z,10.73
2019-06-26T11:21:30.150Z,10.07
2019-06-26T11:23:59.788Z,12.20
2019-06-26T11:26:38.727Z,10.70
2019-06-26T11:29:08.308Z,10.50
2019-06-26T11:31:38.364Z,10.90
2019-06-26T11:34:28.244Z,10.80
2019-06-26T11:37:04.252Z,11.37
2019-06-26T11:39:31.223Z,10.73
2019-06-26T11:42:01.101Z,11.50
2019-06-26T11:50:32.950Z,11.40
2019-06-26T11:52:58.925Z,11.13
2019-06-26T11:58:35.093Z,10.67
2019-06-26T12:01:03.816Z,10.13
2019-06-26T12:03:34.019Z,10.50
2019-06-26T12:06:17.755Z,10.80
2019-06-26T12:08:36.676Z,10.03
2019-06-26T12:13:46.095Z,10.80
2019-06-26T12:16:27.551Z,10.67
2019-06-26T12:19:02.106Z,10.50
2019-06-26T12:21:33.614Z,10.10
2019-06-26T12:24:08.434Z,10.33
2019-06-26T12:26:58.405Z,11.27
2019-06-26T12:29:28.064Z,10.50
2019-06-26T12:31:57.830Z,11.50
2019-06-26T12:34:27.341Z,9.63
2019-06-26T12:37:00.065Z,10.43
2019-06-26T12:42:26.126Z,10.30
2019-06-26T12:44:55.864Z,9.27
2019-06-26T12:47:25.580Z,9.90
2019-06-26T12:49:55.287Z,9.87
2019-06-26T12:52:24.986Z,8.97
2019-06-26T12:54:56.197Z,9.27
2019-06-26T12:57:45.199Z,9.90
2019-06-26T13:00:02.360Z,9.97
2019-06-26T13:02:33.884Z,9.37
2019-06-26T13:05:19.260Z,10.03
2019-06-26T13:08:01.443Z,8.73
2019-06-26T13:10:48.525Z,9.23
2019-06-26T13:13:05.758Z,8.37
2019-06-26T13:15:35.545Z,9.27
2019-06-26T13:21:24.650Z,9.83
2019-06-26T13:23:52.654Z,9.03
2019-06-26T13:26:22.344Z,9.17
2019-06-26T13:28:51.997Z,9.33
2019-06-26T13:31:27.932Z,9.20
2019-06-26T13:34:16.189Z,8.87
2019-06-26T13:39:54.236Z,8.50
2019-06-26T13:45:22.674Z,9.17
2019-06-26T13:47:56.576Z,9.43
2019-06-26T13:50:35.070Z,9.10
2019-06-26T13:53:14.396Z,9.00
2019-06-26T13:55:53.326Z,8.90
2019-06-26T13:58:24.563Z,8.80
2019-06-26T14:00:54.109Z,9.40
2019-06-26T14:03:23.692Z,8.83
2019-06-26T14:05:53.234Z,8.20
2019-06-26T14:08:22.725Z,8.87
2019-06-26T14:10:52.300Z,8.83
2019-06-26T14:13:21.918Z,9.23
2019-06-26T14:15:51.505Z,9.07
2019-06-26T14:18:21.068Z,8.97
2019-06-26T14:20:50.781Z,9.87
2019-06-26T14:23:21.326Z,8.93
2019-06-26T14:25:50.973Z,9.47
2019-06-26T14:28:20.497Z,8.90
2019-06-26T14:30:50.146Z,8.67
2019-06-26T14:33:19.685Z,9.90
2019-06-26T14:35:49.137Z,9.03
2019-06-26T14:38:18.714Z,9.03
2019-06-26T14:40:48.244Z,8.10
2019-06-26T14:43:17.804Z,9.20
2019-06-26T14:45:47.369Z,9.00
2019-06-26T14:48:16.948Z,8.80
2019-06-26T14:50:46.567Z,8.80
2019-06-26T14:53:16.210Z,8.77
2019-06-26T14:55:45.786Z,9.20
2019-06-26T14:58:15.224Z,9.13
2019-06-26T15:00:44.690Z,9.27
2019-06-26T15:03:14.274Z,9.17
2019-06-26T15:05:43.853Z,8.73
2019-06-26T15:08:13.406Z,8.77
2019-06-26T15:10:43.202Z,8.97
2019-06-26T15:13:12.774Z,8.90
2019-06-26T15:15:42.386Z,8.17
2019-06-26T15:18:12.067Z,8.20
2019-06-26T15:20:44.039Z,8.30
2019-06-26T15:23:15.156Z,8.70
2019-06-26T15:25:47.688Z,8.67
2019-06-26T15:28:17.299Z,7.83
2019-06-26T15:30:46.928Z,9.00
2019-06-26T15:33:17.461Z,8.80
2019-06-26T15:35:46.966Z,9.60
2019-06-26T15:38:16.613Z,9.30
2019-06-26T15:40:47.748Z,8.77
2019-06-26T15:43:17.423Z,8.90
2019-06-26T15:45:47.026Z,9.00
2019-06-26T15:48:21.768Z,8.23
2019-06-26T15:50:51.269Z,9.13
2019-06-26T15:53:20.906Z,8.83
2019-06-26T15:55:50.701Z,9.37
2019-06-26T15:58:20.334Z,8.87
2019-06-26T16:00:50.076Z,8.67
2019-06-26T16:03:19.539Z,9.83
2019-06-26T16:05:49.029Z,9.70
2019-06-26T16:08:20.225Z,9.50
2019-06-26T16:10:51.603Z,9.53
2019-06-26T16:13:21.213Z,8.63
2019-06-26T16:15:51.071Z,8.97
2019-06-26T16:18:22.407Z,9.77
2019-06-26T16:20:51.982Z,9.33
2019-06-26T16:23:21.494Z,10.37
2019-06-26T16:25:50.934Z,9.90
2019-06-26T16:28:20.573Z,10.33
2019-06-26T16:30:50.064Z,9.43
2019-06-26T16:33:19.636Z,10.33
2019-06-26T16:35:49.232Z,11.13
2019-06-26T16:38:18.893Z,11.00
2019-06-26T16:40:48.402Z,11.33
2019-06-26T16:43:18.881Z,10.90
2019-06-26T16:45:48.401Z,10.20
2019-06-26T16:48:17.934Z,9.67
2019-06-26T16:50:49.158Z,11.17
2019-06-26T16:53:18.787Z,10.40
2019-06-26T16:55:48.250Z,11.33
2019-06-26T16:58:17.833Z,11.40
2019-06-26T17:00:47.460Z,11.07
2019-06-26T17:03:16.963Z,10.37
2019-06-26T17:05:49.332Z,10.87
2019-06-26T17:08:18.890Z,11.20
2019-06-26T17:10:48.590Z,10.87
2019-06-26T17:13:18.196Z,11.87
2019-06-26T17:15:47.703Z,13.67
2019-06-26T17:18:17.327Z,11.53
2019-06-26T17:20:47.156Z,11.80
2019-06-26T17:23:16.735Z,10.70
2019-06-26T17:25:46.308Z,12.67
2019-06-26T17:28:15.837Z,12.70
2019-06-26T17:30:45.421Z,12.83
2019-06-26T17:33:15.011Z,10.87
2019-06-26T17:35:44.589Z,13.57
2019-06-26T17:38:14.291Z,12.97
2019-06-26T17:40:43.984Z,12.53
2019-06-26T17:43:13.727Z,12.47
2019-06-26T17:45:43.636Z,12.27
2019-06-26T17:48:13.392Z,11.37
2019-06-26T17:50:43.080Z,11.97
2019-06-26T17:53:21.369Z,12.80
2019-06-26T17:55:44.215Z,13.40
2019-06-26T17:58:13.826Z,12.60
2019-06-26T18:00:44.380Z,13.70
2019-06-26T18:03:24.944Z,13.13
2019-06-26T18:05:54.387Z,12.67
2019-06-26T18:08:23.993Z,13.73
2019-06-26T18:10:53.626Z,12.93
2019-06-26T18:13:23.076Z,12.60
2019-06-26T18:15:55.528Z,13.37
2019-06-26T18:18:28.237Z,14.50
2019-06-26T18:20:57.969Z,13.87
2019-06-26T18:23:37.034Z,13.63
2019-06-26T18:26:12.578Z,14.07
2019-06-26T18:28:34.814Z,13.67
2019-06-26T18:31:04.456Z,13.60
2019-06-26T18:33:36.677Z,13.00
2019-06-26T18:36:07.914Z,12.93
2019-06-26T18:38:37.424Z,14.17
2019-06-26T18:41:07.146Z,14.37
2019-06-26T18:43:36.892Z,14.37
2019-06-26T18:46:06.614Z,14.73
2019-06-26T18:48:36.267Z,12.87
2019-06-26T18:51:05.922Z,13.60
2019-06-26T18:53:35.522Z,12.60
2019-06-26T18:56:05.140Z,11.40
2019-06-26T18:58:56.709Z,12.93
2019-06-26T19:02:05.356Z,12.27
2019-06-26T19:04:42.791Z,12.23
2019-06-26T19:07:12.512Z,12.57
2019-06-26T19:09:42.124Z,12.10
2019-06-26T19:12:13.060Z,11.50
2019-06-26T19:14:45.986Z,12.33
2019-06-26T19:17:13.854Z,11.70
2019-06-26T19:19:43.399Z,11.03
2019-06-26T19:22:16.999Z,12.00
2019-06-26T19:24:46.674Z,11.90
2019-06-26T19:27:16.533Z,12.23
2019-06-26T19:29:47.145Z,12.60
2019-06-26T19:32:16.854Z,12.00
2019-06-26T19:34:46.450Z,13.57
2019-06-26T19:37:16.131Z,11.90
2019-06-26T19:39:46.807Z,13.23
2019-06-26T19:42:16.673Z,12.70
2019-06-26T19:44:46.187Z,12.27
2019-06-26T19:47:15.843Z,12.40
2019-06-26T19:49:45.363Z,12.77
2019-06-26T19:52:14.960Z,14.57
2019-06-26T19:54:46.659Z,14.10
2019-06-26T19:57:16.880Z,13.93
2019-06-26T19:59:46.604Z,12.20
2019-06-26T20:02:16.075Z,12.77
2019-06-26T20:14:18.592Z,13.27
2019-06-26T20:17:06.324Z,13.40
2019-06-26T20:19:47.229Z,13.20
2019-06-26T20:22:32.637Z,12.57
2019-06-26T20:25:26.073Z,12.63
2019-06-26T20:28:30.686Z,13.03
2019-06-26T20:31:11.526Z,13.00
2019-06-26T20:33:49.334Z,12.80
2019-06-26T20:36:35.482Z,13.13
2019-06-26T20:39:20.978Z,13.17
2019-06-26T20:45:11.218Z,13.53
2019-06-26T20:47:50.699Z,13.47
2019-06-26T20:50:31.308Z,13.17
2019-06-26T20:56:34.887Z,14.43
2019-06-26T21:00:01.500Z,13.20
2019-06-26T21:14:09.645Z,13.97
2019-06-26T21:16:50.655Z,14.43
2019-06-26T21:19:26.753Z,14.90
2019-06-26T21:28:29.919Z,15.33
2019-06-26T21:34:04.804Z,15.20
2019-06-26T21:36:45.247Z,14.57
2019-06-26T21:39:36.300Z,15.03
2019-06-26T21:42:25.214Z,15.97
2019-06-26T21:45:26.208Z,15.00
2019-06-26T21:47:59.948Z,15.77
2019-06-26T21:50:36.217Z,16.47
2019-06-26T21:53:09.077Z,15.23
2019-06-26T21:55:40.239Z,17.07
2019-06-26T21:58:27.735Z,18.20
2019-06-26T22:01:15.350Z,17.23
2019-06-26T22:04:03.265Z,16.67
2019-06-26T22:06:37.507Z,16.47
2019-06-26T22:09:17.676Z,15.80
2019-06-26T22:11:48.677Z,16.90
2019-06-26T22:14:18.277Z,18.13
2019-06-26T22:16:48.124Z,17.63
2019-06-26T22:19:18.618Z,17.77
2019-06-26T22:21:48.406Z,17.60
2019-06-26T22:24:17.973Z,18.07
2019-06-26T22:26:47.598Z,18.40
2019-06-26T22:29:17.288Z,17.17
2019-06-26T22:31:46.898Z,16.30
2019-06-26T22:34:16.408Z,16.00
2019-06-26T22:36:51.669Z,16.23
2019-06-26T22:39:17.492Z,16.20
2019-06-26T22:41:49.823Z,15.87
2019-06-26T22:44:20.426Z,16.17
2019-06-26T22:46:50.076Z,17.00
2019-06-26T22:49:19.647Z,16.93
2019-06-26T22:51:49.285Z,16.30
2019-06-26T22:54:19.850Z,16.63
2019-06-26T22:56:49.880Z,16.83
2019-06-26T22:59:19.568Z,17.77
2019-06-26T23:01:49.391Z,19.27
2019-06-26T23:04:18.999Z,18.17
2019-06-26T23:06:48.506Z,19.33
2019-06-26T23:09:18.053Z,19.77
2019-06-26T23:11:47.706Z,20.57
2019-06-26T23:14:17.217Z,21.40
2019-06-26T23:16:46.709Z,20.57
2019-06-26T23:19:16.461Z,19.70
2019-06-26T23:21:47.334Z,21.10
2019-06-26T23:24:16.903Z,21.67
2019-06-26T23:26:46.482Z,20.87
2019-06-26T23:29:15.980Z,19.53
2019-06-26T23:31:45.483Z,20.40
2019-06-26T23:34:14.986Z,20.80
2019-06-26T23:36:44.618Z,21.30
2019-06-26T23:39:14.431Z,21.47
2019-06-26T23:41:44.344Z,21.07
2019-06-26T23:44:13.844Z,20.77
2019-06-26T23:46:43.564Z,21.23
2019-06-26T23:49:14.183Z,21.47
2019-06-26T23:51:43.685Z,21.80
2019-06-26T23:54:14.380Z,21.53
2019-06-26T23:56:43.876Z,20.17
2019-06-26T23:59:13.444Z,19.93
